createdAt,value
2022-07-30T00:00:29.650Z,54.19
2022-07-30T00:02:58.192Z,53.66
2022-07-30T00:05:26.617Z,54.67
2022-07-30T00:07:54.953Z,54.41
2022-07-30T00:10:24.004Z,54.47
2022-07-30T00:12:52.995Z,54.43
2022-07-30T00:15:21.316Z,54.27
2022-07-30T00:17:51.079Z,54.40
2022-07-30T00:20:19.719Z,53.73
2022-07-30T00:22:48.220Z,53.70
2022-07-30T00:25:18.357Z,53.81
2022-07-30T00:27:47.060Z,54.62
2022-07-30T00:30:15.891Z,54.18
2022-07-30T00:32:44.986Z,53.97
2022-07-30T00:35:16.264Z,54.14
2022-07-30T00:37:46.561Z,53.59
2022-07-30T00:40:15.139Z,54.52
2022-07-30T00:42:44.949Z,54.23
2022-07-30T00:45:15.813Z,54.06
2022-07-30T00:47:44.502Z,54.05
2022-07-30T00:50:14.521Z,54.21
2022-07-30T00:52:44.612Z,53.56
2022-07-30T00:55:14.900Z,53.82
2022-07-30T00:57:44.018Z,53.62
2022-07-30T01:00:14.942Z,54.19
2022-07-30T01:02:43.876Z,53.75
2022-07-30T01:05:12.611Z,54.22
2022-07-30T01:07:41.952Z,54.84
2022-07-30T01:10:13.648Z,53.99
2022-07-30T01:12:43.520Z,54.26
2022-07-30T01:15:12.764Z,54.30
2022-07-30T01:17:41.513Z,53.63
2022-07-30T01:20:13.545Z,53.87
2022-07-30T01:22:49.129Z,54.69
2022-07-30T01:25:23.517Z,54.21
2022-07-30T01:27:56.219Z,53.89
2022-07-30T01:30:27.751Z,53.75
2022-07-30T01:32:58.002Z,53.84
2022-07-30T01:35:29.593Z,53.27
2022-07-30T01:38:00.284Z,53.98
2022-07-30T01:40:30.111Z,53.80
2022-07-30T01:43:02.387Z,54.14
2022-07-30T01:45:33.774Z,54.45
2022-07-30T01:48:11.031Z,54.04
2022-07-30T01:50:39.802Z,54.27
2022-07-30T01:53:11.907Z,53.88
2022-07-30T01:55:41.271Z,54.51
2022-07-30T01:58:11.873Z,53.98
2022-07-30T02:00:44.294Z,53.85
2022-07-30T02:03:12.818Z,54.08
2022-07-30T02:05:44.432Z,54.39
2022-07-30T02:08:17.157Z,53.80
2022-07-30T02:10:53.656Z,54.21
2022-07-30T02:13:27.404Z,54.36
2022-07-30T02:15:58.032Z,53.88
2022-07-30T02:18:32.385Z,54.18
2022-07-30T02:21:07.481Z,54.37
2022-07-30T02:23:41.113Z,54.63
2022-07-30T02:26:10.578Z,55.29
2022-07-30T02:28:44.951Z,55.15
2022-07-30T02:31:17.295Z,54.65
2022-07-30T02:33:49.492Z,54.66
2022-07-30T02:36:19.791Z,54.29
2022-07-30T02:38:51.348Z,54.85
2022-07-30T02:41:21.920Z,54.56
2022-07-30T02:43:53.510Z,54.11
2022-07-30T02:46:24.197Z,54.82
2022-07-30T02:49:12.275Z,54.69
2022-07-30T02:51:43.185Z,54.69
2022-07-30T02:54:12.624Z,54.26
2022-07-30T02:56:43.455Z,54.49
2022-07-30T02:59:14.477Z,54.92
2022-07-30T03:01:43.939Z,54.84
2022-07-30T03:04:13.548Z,54.89
2022-07-30T03:06:44.715Z,54.21
2022-07-30T03:09:16.764Z,54.40
2022-07-30T03:11:45.344Z,55.13
2022-07-30T03:14:15.089Z,55.24
2022-07-30T03:16:48.406Z,55.15
2022-07-30T03:19:21.912Z,55.25
2022-07-30T03:21:50.885Z,55.28
2022-07-30T03:24:23.537Z,54.54
2022-07-30T03:26:53.442Z,54.59
2022-07-30T03:29:24.184Z,55.12
2022-07-30T03:31:52.747Z,55.06
2022-07-30T03:34:22.749Z,54.17
2022-07-30T03:36:53.996Z,54.85
2022-07-30T03:39:23.546Z,55.22
2022-07-30T03:41:53.707Z,55.42
2022-07-30T03:44:25.270Z,55.11
2022-07-30T03:46:54.437Z,55.43
2022-07-30T03:49:24.445Z,55.29
2022-07-30T03:51:53.567Z,54.86
2022-07-30T03:54:22.073Z,55.60
2022-07-30T03:57:20.213Z,55.17
2022-07-30T03:59:52.685Z,54.88
2022-07-30T04:02:22.651Z,55.59
2022-07-30T04:05:03.411Z,55.21
2022-07-30T04:07:31.869Z,54.90
2022-07-30T04:10:07.129Z,54.74
2022-07-30T04:12:56.490Z,54.82
2022-07-30T04:16:40.049Z,54.56
2022-07-30T04:18:16.974Z,54.42
2022-07-30T04:20:47.465Z,54.39
2022-07-30T04:23:16.803Z,58.68
2022-07-30T04:25:46.251Z,58.70
2022-07-30T04:28:16.151Z,58.66
2022-07-30T04:30:47.205Z,58.63
2022-07-30T04:33:16.766Z,59.17
2022-07-30T04:36:07.695Z,59.17
2022-07-30T04:38:38.588Z,59.42
2022-07-30T04:41:07.542Z,59.34
2022-07-30T04:44:11.167Z,59.45
2022-07-30T04:46:48.842Z,59.39
2022-07-30T04:49:17.819Z,59.80
2022-07-30T04:51:46.924Z,59.52
2022-07-30T04:54:16.369Z,59.58
2022-07-30T04:56:52.564Z,59.54
2022-07-30T04:59:25.584Z,59.62
2022-07-30T05:01:57.684Z,59.52
2022-07-30T05:04:26.608Z,60.03
2022-07-30T05:06:55.119Z,60.25
2022-07-30T05:09:24.035Z,59.91
2022-07-30T05:11:53.027Z,59.86
2022-07-30T05:14:21.538Z,59.86
2022-07-30T05:16:50.390Z,59.51
2022-07-30T05:19:20.684Z,59.51
2022-07-30T05:21:49.311Z,59.67
2022-07-30T05:24:17.846Z,59.79
2022-07-30T05:26:54.678Z,59.67
2022-07-30T05:29:24.155Z,59.48
2022-07-30T05:32:02.583Z,59.44
2022-07-30T05:34:34.460Z,59.52
2022-07-30T05:37:03.168Z,59.62
2022-07-30T05:39:32.372Z,59.64
2022-07-30T05:42:22.003Z,59.90
2022-07-30T05:44:53.364Z,60.02
2022-07-30T05:47:22.638Z,59.98
2022-07-30T05:49:53.137Z,59.69
2022-07-30T05:52:21.482Z,59.63
2022-07-30T05:54:50.069Z,59.71
2022-07-30T05:57:37.542Z,59.67
2022-07-30T06:00:10.775Z,59.97
2022-07-30T06:02:45.115Z,60.18
2022-07-30T06:05:30.642Z,60.04
2022-07-30T06:08:01.426Z,60.21
2022-07-30T06:10:32.068Z,59.89
2022-07-30T06:13:00.532Z,59.56
2022-07-30T06:15:29.214Z,59.71
2022-07-30T06:18:01.718Z,59.77
2022-07-30T06:20:51.968Z,60.43
2022-07-30T06:23:39.401Z,59.64
2022-07-30T06:26:07.862Z,60.08
2022-07-30T06:28:39.401Z,59.79
2022-07-30T06:31:38.292Z,59.60
2022-07-30T06:34:08.080Z,59.67
2022-07-30T06:36:42.816Z,59.64
2022-07-30T06:39:56.062Z,59.42
2022-07-30T06:42:21.517Z,59.36
2022-07-30T06:45:16.037Z,58.88
2022-07-30T06:48:10.887Z,59.33
2022-07-30T06:50:41.291Z,59.34
2022-07-30T06:53:10.935Z,59.30
2022-07-30T06:56:00.683Z,58.91
2022-07-30T06:58:35.836Z,58.99
2022-07-30T07:01:23.544Z,58.92
2022-07-30T07:03:52.140Z,58.72
2022-07-30T07:06:20.495Z,58.49
2022-07-30T07:08:50.548Z,58.31
2022-07-30T07:11:24.996Z,58.38
2022-07-30T07:13:56.822Z,58.08
2022-07-30T07:16:33.515Z,58.08
2022-07-30T07:19:11.320Z,58.55
2022-07-30T07:21:42.492Z,58.34
2022-07-30T07:24:12.392Z,58.47
2022-07-30T07:26:55.583Z,58.06
2022-07-30T07:29:24.108Z,58.03
2022-07-30T07:32:05.930Z,58.02
2022-07-30T07:34:36.535Z,58.09
2022-07-30T07:37:04.921Z,57.59
2022-07-30T07:39:34.588Z,57.97
2022-07-30T07:42:02.905Z,57.60
2022-07-30T07:44:32.344Z,57.67
2022-07-30T07:47:00.977Z,57.76
2022-07-30T07:49:33.940Z,57.65
2022-07-30T07:52:03.232Z,57.75
2022-07-30T07:54:31.584Z,57.06
2022-07-30T07:57:01.894Z,57.20
2022-07-30T07:59:43.001Z,57.27
2022-07-30T08:02:16.909Z,57.32
2022-07-30T08:04:46.505Z,57.59
2022-07-30T08:07:32.463Z,57.17
2022-07-30T08:10:19.571Z,57.67
2022-07-30T08:13:49.156Z,57.37
2022-07-30T08:16:19.247Z,57.28
2022-07-30T08:18:53.123Z,57.26
2022-07-30T08:21:29.321Z,57.35
2022-07-30T08:23:58.566Z,56.93
2022-07-30T08:26:27.136Z,56.82
2022-07-30T08:28:56.782Z,56.98
2022-07-30T08:31:25.394Z,57.27
2022-07-30T08:33:54.015Z,57.43
2022-07-30T08:36:25.736Z,56.76
2022-07-30T08:38:55.201Z,56.38
2022-07-30T08:41:23.700Z,56.38
2022-07-30T08:43:52.518Z,55.89
2022-07-30T08:46:25.637Z,55.88
2022-07-30T08:49:11.198Z,55.82
2022-07-30T08:51:40.902Z,55.84
2022-07-30T08:54:40.192Z,55.41
2022-07-30T08:57:08.640Z,55.72
2022-07-30T08:59:59.235Z,55.60
2022-07-30T09:02:31.887Z,55.97
2022-07-30T09:05:05.642Z,55.59
2022-07-30T09:07:34.593Z,55.15
2022-07-30T09:10:07.192Z,55.51
2022-07-30T09:12:38.436Z,55.15
2022-07-30T09:15:09.747Z,54.68
2022-07-30T09:17:55.158Z,54.18
2022-07-30T09:20:25.977Z,53.29
2022-07-30T09:22:56.171Z,52.83
2022-07-30T09:25:46.598Z,53.05
2022-07-30T09:28:36.680Z,52.80
2022-07-30T09:31:17.262Z,52.46
2022-07-30T09:34:24.509Z,52.21
2022-07-30T09:37:03.440Z,52.15
2022-07-30T09:39:59.328Z,51.98
2022-07-30T09:43:05.568Z,51.59
2022-07-30T09:45:35.018Z,51.62
2022-07-30T09:48:04.150Z,51.58
2022-07-30T09:50:34.051Z,50.91
2022-07-30T09:53:12.259Z,50.96
2022-07-30T09:55:43.457Z,51.01
2022-07-30T09:58:20.025Z,51.18
2022-07-30T10:00:58.705Z,50.90
2022-07-30T10:03:48.500Z,50.25
2022-07-30T10:06:46.833Z,49.96
2022-07-30T10:09:30.195Z,50.07
2022-07-30T10:12:00.623Z,49.26
2022-07-30T10:14:34.048Z,49.35
2022-07-30T10:17:10.716Z,49.69
2022-07-30T10:19:42.203Z,49.52
2022-07-30T10:22:31.367Z,49.67
2022-07-30T10:25:23.359Z,49.96
2022-07-30T10:28:16.508Z,48.76
2022-07-30T10:30:46.157Z,48.04
2022-07-30T10:33:36.468Z,49.41
2022-07-30T10:36:08.979Z,49.30
2022-07-30T10:38:41.801Z,49.19
2022-07-30T10:41:42.210Z,48.58
2022-07-30T10:44:29.696Z,48.75
2022-07-30T10:47:07.838Z,47.97
2022-07-30T10:49:41.578Z,42.48
2022-07-30T10:52:12.459Z,43.66
2022-07-30T10:54:44.573Z,44.48
2022-07-30T10:57:23.084Z,45.06
2022-07-30T11:00:15.251Z,48.01
2022-07-30T11:03:16.422Z,46.74
2022-07-30T11:05:46.466Z,45.83
2022-07-30T11:08:32.094Z,45.70
2022-07-30T11:11:19.476Z,45.17
2022-07-30T11:13:55.067Z,45.78
2022-07-30T11:16:24.820Z,45.42
2022-07-30T11:19:57.063Z,44.02
2022-07-30T11:22:28.291Z,45.32
2022-07-30T11:24:58.627Z,43.46
2022-07-30T11:27:41.400Z,44.63
2022-07-30T11:30:32.476Z,42.86
2022-07-30T11:33:33.087Z,42.87
2022-07-30T11:36:10.530Z,42.41
2022-07-30T11:38:54.530Z,42.01
2022-07-30T11:41:23.255Z,41.48
2022-07-30T11:44:24.888Z,42.72
2022-07-30T11:46:54.986Z,42.93
2022-07-30T11:49:23.566Z,42.42
2022-07-30T11:51:51.998Z,43.20
2022-07-30T11:54:20.423Z,42.33
2022-07-30T11:56:50.276Z,41.92
2022-07-30T11:59:18.639Z,43.26
2022-07-30T12:01:51.607Z,41.99
2022-07-30T12:04:21.372Z,41.01
2022-07-30T12:06:50.356Z,42.09
2022-07-30T12:09:28.752Z,41.81
2022-07-30T12:11:58.155Z,41.98
2022-07-30T12:14:26.532Z,41.57
2022-07-30T12:16:55.496Z,41.08
2022-07-30T12:19:25.344Z,40.43
2022-07-30T12:21:53.910Z,41.58
2022-07-30T12:24:25.949Z,40.16
2022-07-30T12:26:54.473Z,39.84
2022-07-30T12:29:22.858Z,41.39
2022-07-30T12:31:53.594Z,40.04
2022-07-30T12:34:23.052Z,39.36
2022-07-30T12:36:53.373Z,40.42
2022-07-30T12:39:23.198Z,41.23
2022-07-30T12:41:52.515Z,41.64
2022-07-30T12:44:38.482Z,40.48
2022-07-30T12:47:11.713Z,39.75
2022-07-30T12:49:48.911Z,39.34
2022-07-30T12:52:28.685Z,39.34
2022-07-30T12:54:59.280Z,39.56
2022-07-30T12:57:27.674Z,39.02
2022-07-30T13:00:04.395Z,38.05
2022-07-30T13:02:34.061Z,38.95
2022-07-30T13:05:10.728Z,39.10
2022-07-30T13:07:55.704Z,38.42
2022-07-30T13:10:30.062Z,39.30
2022-07-30T13:12:59.427Z,39.41
2022-07-30T13:15:27.806Z,38.33
2022-07-30T13:17:56.179Z,38.50
2022-07-30T13:20:24.529Z,38.09
2022-07-30T13:22:56.816Z,38.28
2022-07-30T13:25:38.988Z,38.92
2022-07-30T13:28:08.946Z,38.25
2022-07-30T13:30:37.285Z,37.89
2022-07-30T13:33:05.601Z,38.15
2022-07-30T13:35:33.957Z,37.59
2022-07-30T13:38:03.664Z,37.57
2022-07-30T13:40:32.660Z,38.31
2022-07-30T13:43:01.619Z,38.38
2022-07-30T13:45:30.053Z,37.44
2022-07-30T13:47:59.353Z,38.22
2022-07-30T13:50:27.761Z,38.84
2022-07-30T13:53:01.782Z,37.13
2022-07-30T13:55:32.128Z,37.69
2022-07-30T13:58:01.346Z,37.61
2022-07-30T14:00:32.463Z,37.58
2022-07-30T14:03:01.791Z,37.68
2022-07-30T14:05:30.194Z,38.09
2022-07-30T14:07:59.009Z,38.55
2022-07-30T14:10:28.380Z,37.50
2022-07-30T14:12:59.920Z,37.43
2022-07-30T14:15:30.961Z,37.84
2022-07-30T14:18:00.383Z,36.34
2022-07-30T14:20:29.320Z,37.17
2022-07-30T14:22:58.009Z,37.86
2022-07-30T14:25:26.435Z,38.12
2022-07-30T14:27:54.809Z,37.14
2022-07-30T14:30:25.100Z,36.89
2022-07-30T14:32:59.216Z,37.47
2022-07-30T14:35:28.889Z,36.91
2022-07-30T14:37:57.433Z,36.95
2022-07-30T14:40:25.909Z,37.12
2022-07-30T14:42:56.255Z,37.13
2022-07-30T14:45:28.690Z,37.86
2022-07-30T14:47:57.338Z,37.48
2022-07-30T14:50:25.911Z,36.77
2022-07-30T14:52:55.333Z,36.62
2022-07-30T14:55:23.838Z,36.58
2022-07-30T14:57:52.163Z,36.94
2022-07-30T15:00:21.337Z,36.22
2022-07-30T15:02:54.058Z,36.52
2022-07-30T15:05:22.657Z,37.92
2022-07-30T15:07:50.980Z,36.85
2022-07-30T15:10:19.585Z,37.12
2022-07-30T15:12:47.963Z,38.02
2022-07-30T15:15:16.782Z,38.18
2022-07-30T15:17:45.956Z,37.60
2022-07-30T15:20:15.656Z,37.27
2022-07-30T15:22:44.071Z,36.70
2022-07-30T15:25:12.412Z,36.24
2022-07-30T15:27:40.757Z,36.44
2022-07-30T15:30:09.668Z,35.80
2022-07-30T15:32:38.569Z,36.56
2022-07-30T15:35:11.814Z,35.88
2022-07-30T15:37:43.303Z,35.68
2022-07-30T15:40:11.900Z,37.67
2022-07-30T15:42:40.689Z,36.73
2022-07-30T15:45:18.425Z,36.75
2022-07-30T15:47:47.195Z,37.92
2022-07-30T15:50:16.695Z,36.98
2022-07-30T15:52:46.593Z,36.27
2022-07-30T15:55:14.981Z,35.89
2022-07-30T15:57:43.519Z,37.83
2022-07-30T16:00:12.755Z,36.58
2022-07-30T16:02:43.498Z,36.48
2022-07-30T16:05:14.146Z,34.78
2022-07-30T16:07:42.797Z,35.45
2022-07-30T16:10:12.614Z,36.68
2022-07-30T16:12:42.049Z,36.25
2022-07-30T16:15:11.524Z,35.47
2022-07-30T16:17:40.121Z,37.20
2022-07-30T16:20:10.099Z,36.26
2022-07-30T16:22:38.781Z,35.60
2022-07-30T16:25:08.010Z,35.99
2022-07-30T16:27:37.762Z,36.43
2022-07-30T16:30:06.833Z,35.40
2022-07-30T16:32:35.173Z,35.81
2022-07-30T16:35:03.618Z,37.26
2022-07-30T16:37:32.001Z,35.87
2022-07-30T16:40:00.302Z,35.21
2022-07-30T16:42:28.825Z,36.20
2022-07-30T16:44:58.540Z,36.60
2022-07-30T16:47:27.072Z,36.09
2022-07-30T16:50:02.385Z,36.61
2022-07-30T16:52:30.750Z,34.19
2022-07-30T16:54:59.425Z,36.61
2022-07-30T16:57:27.930Z,36.51
2022-07-30T16:59:56.267Z,36.63
2022-07-30T17:02:26.225Z,36.08
2022-07-30T17:04:54.660Z,34.20
2022-07-30T17:07:23.347Z,36.28
2022-07-30T17:09:53.486Z,36.29
2022-07-30T17:12:23.327Z,35.91
2022-07-30T17:14:53.964Z,35.75
2022-07-30T17:17:22.397Z,34.65
2022-07-30T17:19:52.115Z,37.15
2022-07-30T17:22:20.589Z,35.86
2022-07-30T17:24:49.161Z,36.02
2022-07-30T17:27:17.591Z,35.94
2022-07-30T17:29:50.584Z,35.70
2022-07-30T17:32:20.028Z,35.28
2022-07-30T17:34:48.556Z,36.89
2022-07-30T17:37:18.347Z,36.40
2022-07-30T17:40:27.225Z,37.00
2022-07-30T17:42:35.236Z,36.50
2022-07-30T17:45:04.989Z,36.00
2022-07-30T17:47:33.774Z,36.27
2022-07-30T17:50:02.770Z,37.30
2022-07-30T17:52:32.503Z,37.47
2022-07-30T17:55:01.006Z,37.40
2022-07-30T17:57:29.452Z,37.69
2022-07-30T17:59:57.923Z,36.52
2022-07-30T18:02:29.013Z,36.83
2022-07-30T18:04:58.997Z,36.39
2022-07-30T18:07:31.995Z,36.57
2022-07-30T18:10:00.340Z,35.54
2022-07-30T18:12:28.849Z,35.87
2022-07-30T18:14:57.509Z,39.16
2022-07-30T18:17:26.296Z,42.29
2022-07-30T18:19:54.970Z,41.81
2022-07-30T18:22:29.313Z,42.27
2022-07-30T18:25:01.632Z,42.40
2022-07-30T18:27:30.048Z,42.72
2022-07-30T18:29:58.434Z,42.84
2022-07-30T18:32:26.948Z,42.56
2022-07-30T18:34:55.425Z,42.71
2022-07-30T18:37:23.772Z,42.48
2022-07-30T18:39:52.124Z,42.74
2022-07-30T18:42:21.980Z,42.84
2022-07-30T18:44:52.181Z,42.82
2022-07-30T18:47:20.589Z,42.86
2022-07-30T18:49:50.163Z,42.90
2022-07-30T18:52:18.773Z,43.04
2022-07-30T18:54:47.116Z,43.02
2022-07-30T18:57:15.830Z,43.13
2022-07-30T18:59:45.745Z,43.26
2022-07-30T19:02:14.123Z,43.20
2022-07-30T19:04:42.508Z,43.28
2022-07-30T19:07:10.815Z,43.05
2022-07-30T19:09:39.464Z,42.78
2022-07-30T19:12:08.355Z,43.03
2022-07-30T19:14:36.706Z,42.97
2022-07-30T19:17:13.886Z,42.58
2022-07-30T19:19:43.783Z,43.04
2022-07-30T19:22:12.115Z,42.75
2022-07-30T19:24:40.482Z,43.07
2022-07-30T19:27:13.704Z,43.79
2022-07-30T19:29:43.296Z,42.96
2022-07-30T19:32:13.273Z,43.79
2022-07-30T19:34:43.532Z,43.65
2022-07-30T19:37:12.003Z,44.02
2022-07-30T19:40:05.206Z,43.92
2022-07-30T19:42:29.470Z,43.78
2022-07-30T19:44:59.096Z,44.10
2022-07-30T19:47:39.335Z,44.22
2022-07-30T19:50:09.948Z,44.09
2022-07-30T19:52:38.643Z,44.04
2022-07-30T19:55:17.131Z,44.17
2022-07-30T19:57:55.787Z,44.32
2022-07-30T20:00:25.449Z,44.53
2022-07-30T20:02:55.263Z,44.45
2022-07-30T20:05:24.725Z,44.31
2022-07-30T20:07:53.346Z,43.93
2022-07-30T20:10:24.171Z,43.71
2022-07-30T20:12:52.483Z,43.30
2022-07-30T20:15:20.844Z,43.23
2022-07-30T20:17:49.206Z,43.56
2022-07-30T20:20:18.980Z,43.10
2022-07-30T20:22:54.771Z,43.28
2022-07-30T20:25:23.150Z,43.25
2022-07-30T20:27:51.549Z,43.01
2022-07-30T20:30:25.255Z,43.04
2022-07-30T20:32:54.171Z,43.03
2022-07-30T20:35:26.612Z,43.47
2022-07-30T20:37:56.572Z,43.20
2022-07-30T20:40:26.832Z,43.14
2022-07-30T20:42:56.079Z,43.22
2022-07-30T20:45:25.207Z,43.40
2022-07-30T20:47:56.525Z,43.39
2022-07-30T20:50:30.781Z,43.45
2022-07-30T20:53:00.215Z,43.08
2022-07-30T20:55:29.002Z,43.22
2022-07-30T20:58:07.010Z,43.49
2022-07-30T21:00:41.875Z,43.48
2022-07-30T21:03:13.822Z,43.31
2022-07-30T21:05:44.130Z,43.31
2022-07-30T21:08:12.924Z,43.42
2022-07-30T21:10:44.495Z,43.58
2022-07-30T21:13:13.714Z,43.41
2022-07-30T21:15:45.670Z,43.52
2022-07-30T21:18:30.765Z,43.44
2022-07-30T21:21:00.848Z,43.14
2022-07-30T21:23:29.339Z,43.49
2022-07-30T21:26:00.593Z,43.71
2022-07-30T21:28:35.742Z,43.75
2022-07-30T21:31:06.978Z,43.90
2022-07-30T21:33:36.460Z,44.62
2022-07-30T21:36:10.648Z,45.90
2022-07-30T21:38:41.802Z,45.41
2022-07-30T21:41:14.192Z,44.32
2022-07-30T21:43:44.501Z,44.91
2022-07-30T21:46:13.348Z,45.45
2022-07-30T21:48:43.064Z,45.81
2022-07-30T21:51:13.550Z,44.87
2022-07-30T21:53:44.774Z,45.32
2022-07-30T21:56:14.725Z,46.19
2022-07-30T21:58:45.140Z,45.74
2022-07-30T22:01:18.078Z,45.17
2022-07-30T22:04:04.050Z,45.58
2022-07-30T22:06:38.734Z,45.53
2022-07-30T22:09:19.828Z,45.29
2022-07-30T22:12:00.769Z,45.44
2022-07-30T22:14:31.470Z,45.47
2022-07-30T22:17:00.486Z,46.04
2022-07-30T22:19:28.983Z,46.52
2022-07-30T22:21:58.761Z,47.30
2022-07-30T22:24:31.275Z,47.31
2022-07-30T22:27:01.332Z,47.00
2022-07-30T22:29:34.553Z,47.04
2022-07-30T22:32:06.386Z,47.04
2022-07-30T22:34:36.388Z,47.04
2022-07-30T22:37:13.261Z,47.18
2022-07-30T22:39:51.753Z,47.11
2022-07-30T22:42:24.347Z,47.06
2022-07-30T22:44:54.807Z,46.63
2022-07-30T22:47:51.122Z,46.18
2022-07-30T22:50:12.829Z,46.97
2022-07-30T22:52:53.148Z,46.64
2022-07-30T22:55:27.039Z,46.53
2022-07-30T22:57:55.351Z,46.63
2022-07-30T23:00:28.230Z,46.76
2022-07-30T23:02:57.574Z,46.66
2022-07-30T23:05:26.766Z,46.73
2022-07-30T23:07:56.653Z,47.00
2022-07-30T23:10:27.929Z,47.29
2022-07-30T23:12:56.653Z,47.58
2022-07-30T23:15:25.165Z,47.25
2022-07-30T23:17:53.679Z,46.99
2022-07-30T23:20:22.750Z,47.53
2022-07-30T23:22:51.553Z,48.43
2022-07-30T23:25:22.919Z,47.44
2022-07-30T23:27:51.953Z,48.53
2022-07-30T23:30:20.317Z,49.01
2022-07-30T23:32:48.741Z,48.68
2022-07-30T23:35:17.727Z,47.98
2022-07-30T23:37:49.081Z,47.22
2022-07-30T23:40:18.961Z,47.26
2022-07-30T23:42:50.823Z,47.11
2022-07-30T23:45:19.524Z,47.14
2022-07-30T23:48:00.993Z,47.28
2022-07-30T23:50:32.922Z,47.15
2022-07-30T23:53:01.569Z,47.04
2022-07-30T23:55:31.021Z,46.84
2022-07-30T23:58:01.121Z,47.31
